| time (UTC) | temp F | wind direction | speed MPH | gust MPH | rain 1hr in | rain 24hr in | rain mn in | humidity % | barometer mb |
| 20260510193555 | 63 | 79 | 2.0 | 8.0 | 0.00 | 0.04 | 0.04 | 83 | 1011.3 |
| 20260510193054 | 63 | 74 | 4.0 | 9.0 | 0.00 | 0.04 | 0.04 | 82 | 1011.2 |
| 20260510192554 | 63 | 65 | 5.0 | 9.0 | 0.00 | 0.04 | 0.04 | 82 | 1011.2 |
| 20260510192057 | 63 | 72 | 7.0 | 12.0 | 0.00 | 0.04 | 0.04 | 81 | 1011.2 |
| 20260510191555 | 63 | 68 | 7.0 | 10.0 | 0.00 | 0.04 | 0.04 | 81 | 1011.2 |
| 20260510191054 | 63 | 58 | 6.0 | 9.0 | 0.00 | 0.04 | 0.04 | 80 | 1011.1 |
| 20260510190555 | 63 | 74 | 6.0 | 8.0 | 0.00 | 0.04 | 0.04 | 79 | 1011.0 |
| 20260510190055 | 63 | 69 | 6.0 | 12.0 | 0.00 | 0.04 | 0.04 | 78 | 1010.9 |
| 20260510185555 | 63 | 62 | 5.0 | 8.0 | 0.00 | 0.04 | 0.04 | 78 | 1010.9 |
| 20260510185057 | 63 | 68 | 2.0 | 3.0 | 0.00 | 0.04 | 0.04 | 78 | 1011.0 |
| 20260510184555 | 63 | 93 | 2.0 | 6.0 | 0.00 | 0.04 | 0.04 | 78 | 1010.9 |
| 20260510184054 | 63 | 85 | 5.0 | 7.0 | 0.00 | 0.04 | 0.04 | 77 | 1010.9 |
| 20260510183554 | 64 | 70 | 3.0 | 7.0 | 0.00 | 0.04 | 0.04 | 77 | 1010.8 |
| 20260510183054 | 64 | 56 | 5.0 | 7.0 | 0.00 | 0.04 | 0.04 | 77 | 1010.8 |
| 20260510182554 | 64 | 79 | 5.0 | 7.0 | 0.00 | 0.04 | 0.04 | 77 | 1010.8 |
| 20260510181558 | 64 | 72 | 3.0 | 7.0 | 0.00 | 0.04 | 0.04 | 76 | 1010.8 |
| 20260510181054 | 64 | 60 | 3.0 | 6.0 | 0.00 | 0.04 | 0.04 | 76 | 1010.8 |
| 20260510180556 | 64 | 72 | 3.0 | 7.0 | 0.00 | 0.04 | 0.04 | 76 | 1010.8 |
| 20260510180053 | 64 | 68 | 3.0 | 7.0 | 0.00 | 0.04 | 0.04 | 75 | 1010.8 |
| 20260510175055 | 64 | 77 | 2.0 | 5.0 | 0.00 | 0.04 | 0.04 | 74 | 1010.8 |
| 20260510174554 | 65 | 74 | 4.0 | 6.0 | 0.00 | 0.04 | 0.04 | 74 | 1010.8 |
| 20260510174055 | 65 | 60 | 3.0 | 8.0 | 0.00 | 0.04 | 0.04 | 74 | 1010.8 |
| 20260510173554 | 65 | 66 | 3.0 | 6.0 | 0.00 | 0.04 | 0.04 | 74 | 1010.8 |
| 20260510172553 | 65 | 50 | 1.0 | 3.0 | 0.00 | 0.04 | 0.04 | 74 | 1010.8 |
| 20260510172054 | 65 | 66 | 2.0 | 5.0 | 0.00 | 0.04 | 0.04 | 74 | 1010.8 |
| 20260510171554 | 65 | 54 | 3.0 | 6.0 | 0.00 | 0.04 | 0.04 | 74 | 1010.8 |
| 20260510171055 | 65 | 57 | 5.0 | 9.0 | 0.01 | 0.04 | 0.04 | 74 | 1010.8 |
| 20260510170553 | 65 | 67 | 3.0 | 10.0 | 0.01 | 0.04 | 0.04 | 75 | 1010.9 |
| 20260510170059 | 65 | 57 | 3.0 | 10.0 | 0.01 | 0.04 | 0.04 | 75 | 1011.0 |
| 20260510165553 | 65 | 65 | 5.0 | 8.0 | 0.01 | 0.04 | 0.04 | 75 | 1011.0 |
| 20260510165053 | 65 | 72 | 6.0 | 8.0 | 0.01 | 0.04 | 0.04 | 75 | 1011.0 |
| 20260510164054 | 66 | 73 | 4.0 | 9.0 | 0.01 | 0.04 | 0.04 | 76 | 1010.9 |
| 20260510163055 | 66 | 76 | 4.0 | 8.0 | 0.01 | 0.04 | 0.04 | 76 | 1011.0 |
| 20260510162553 | 66 | 50 | 5.0 | 8.0 | 0.01 | 0.04 | 0.04 | 77 | 1011.0 |
| 20260510162054 | 66 | 54 | 4.0 | 7.0 | 0.01 | 0.04 | 0.04 | 77 | 1011.2 |
| 20260510161557 | 66 | 36 | 3.0 | 7.0 | 0.01 | 0.04 | 0.04 | 77 | 1011.2 |
| 20260510161109 | 66 | 49 | 5.0 | 7.0 | 0.00 | 0.03 | 0.03 | 78 | 1011.1 |
| 20260510160556 | 65 | 53 | 3.0 | 5.0 | 0.00 | 0.03 | 0.03 | 79 | 1011.1 |
| 20260510160054 | 65 | 48 | 3.0 | 5.0 | 0.00 | 0.03 | 0.03 | 80 | 1011.2 |
| 20260510155554 | 65 | 69 | 2.0 | 7.0 | 0.00 | 0.03 | 0.03 | 79 | 1011.2 |
| 20260510155054 | 65 | 47 | 3.0 | 7.0 | 0.00 | 0.03 | 0.03 | 79 | 1011.3 |
| 20260510154554 | 65 | 31 | 3.0 | 3.0 | 0.00 | 0.03 | 0.03 | 79 | 1011.4 |
| 20260510154053 | 66 | 27 | 3.0 | 3.0 | 0.00 | 0.03 | 0.03 | 79 | 1011.4 |
| 20260510153554 | 66 | 55 | 3.0 | 5.0 | 0.00 | 0.03 | 0.03 | 79 | 1011.4 |
| 20260510152555 | 66 | 70 | 3.0 | 3.0 | 0.00 | 0.03 | 0.03 | 79 | 1011.4 |
| 20260510152053 | 66 | 51 | 3.0 | 3.0 | 0.00 | 0.03 | 0.03 | 79 | 1011.4 |
| 20260510151554 | 66 | 52 | 4.0 | 7.0 | 0.00 | 0.03 | 0.03 | 78 | 1011.5 |
| 20260510151054 | 66 | 38 | 3.0 | 3.0 | 0.00 | 0.03 | 0.03 | 78 | 1011.5 |
| 20260510150556 | 65 | 51 | 2.0 | 3.0 | 0.00 | 0.03 | 0.03 | 78 | 1011.5 |
| 20260510150053 | 65 | 79 | 2.0 | 5.0 | 0.00 | 0.03 | 0.03 | 78 | 1011.6 |
| 20260510145557 | 65 | 106 | 2.0 | 5.0 | 0.00 | 0.03 | 0.03 | 77 | 1011.6 |
| 20260510145054 | 65 | 110 | 5.0 | 7.0 | 0.00 | 0.03 | 0.03 | 76 | 1011.6 |
| 20260510144553 | 66 | 111 | 3.0 | 6.0 | 0.00 | 0.03 | 0.03 | 77 | 1011.7 |
| 20260510144054 | 66 | 98 | 6.0 | 9.0 | 0.00 | 0.03 | 0.03 | 77 | 1011.6 |
| 20260510143554 | 66 | 115 | 4.0 | 7.0 | 0.00 | 0.03 | 0.03 | 76 | 1011.6 |
| 20260510143053 | 66 | 107 | 2.0 | 7.0 | 0.00 | 0.03 | 0.03 | 77 | 1011.6 |
| 20260510142553 | 66 | 83 | 2.0 | 6.0 | 0.00 | 0.03 | 0.03 | 77 | 1011.7 |
| 20260510142101 | 66 | 69 | 2.0 | 5.0 | 0.00 | 0.03 | 0.03 | 78 | 1011.7 |
| 20260510141053 | 66 | 74 | 2.0 | 3.0 | 0.00 | 0.03 | 0.03 | 79 | 1011.7 |
| 20260510140554 | 66 | 78 | 5.0 | 8.0 | 0.00 | 0.03 | 0.03 | 77 | 1011.7 |
| 20260510140053 | 66 | 68 | 2.0 | 5.0 | 0.00 | 0.03 | 0.03 | 77 | 1011.7 |
| 20260510135053 | 65 | 64 | 4.0 | 6.0 | 0.00 | 0.03 | 0.03 | 77 | 1011.8 |
| 20260510134054 | 65 | 64 | 3.0 | 5.0 | 0.00 | 0.03 | 0.03 | 77 | 1011.9 |
| 20260510133554 | 65 | 53 | 3.0 | 5.0 | 0.00 | 0.03 | 0.03 | 76 | 1011.9 |
| 20260510133053 | 65 | 78 | 3.0 | 7.0 | 0.00 | 0.03 | 0.03 | 75 | 1012.1 |
| 20260510132612 | 65 | 42 | 3.0 | 5.0 | 0.00 | 0.03 | 0.03 | 76 | 1012.1 |
| 20260510132053 | 65 | 36 | 2.0 | 3.0 | 0.00 | 0.03 | 0.03 | 76 | 1012.1 |
| 20260510131553 | 65 | 79 | 3.0 | 8.0 | 0.00 | 0.03 | 0.03 | 76 | 1012.1 |
| 20260510130553 | 65 | 59 | 3.0 | 7.0 | 0.00 | 0.03 | 0.03 | 79 | 1011.9 |
| 20260510130053 | 65 | 70 | 3.0 | 7.0 | 0.00 | 0.03 | 0.03 | 79 | 1012.0 |
| 20260510125553 | 65 | 73 | 5.0 | 8.0 | 0.00 | 0.03 | 0.03 | 78 | 1012.0 |
| 20260510125056 | 65 | 65 | 5.0 | 8.0 | 0.00 | 0.03 | 0.03 | 79 | 1012.1 |
| 20260510124553 | 65 | 72 | 5.0 | 7.0 | 0.00 | 0.03 | 0.03 | 77 | 1012.1 |
| 20260510124053 | 65 | 42 | 4.0 | 6.0 | 0.00 | 0.03 | 0.03 | 76 | 1012.1 |
| 20260510123553 | 65 | 57 | 5.0 | 8.0 | 0.00 | 0.03 | 0.03 | 74 | 1012.1 |
| 20260510123053 | 65 | 74 | 1.0 | 2.0 | 0.00 | 0.03 | 0.03 | 74 | 1012.2 |
| 20260510122553 | 65 | 70 | 3.0 | 5.0 | 0.00 | 0.03 | 0.03 | 73 | 1012.2 |
| 20260510122053 | 65 | 51 | 5.0 | 8.0 | 0.00 | 0.03 | 0.03 | 73 | 1012.2 |
| 20260510121053 | 65 | 56 | 3.0 | 5.0 | 0.00 | 0.03 | 0.03 | 73 | 1012.2 |
| 20260510120552 | 65 | 77 | 5.0 | 9.0 | 0.00 | 0.03 | 0.03 | 72 | 1012.2 |
| 20260510120053 | 65 | 74 | 6.0 | 9.0 | 0.00 | 0.03 | 0.03 | 72 | 1012.2 |
| 20260510115553 | 66 | 74 | 7.0 | 10.0 | 0.00 | 0.03 | 0.03 | 72 | 1012.2 |
| 20260510115053 | 66 | 78 | 6.0 | 12.0 | 0.00 | 0.03 | 0.03 | 72 | 1012.1 |
| 20260510114554 | 65 | 76 | 7.0 | 9.0 | 0.00 | 0.03 | 0.03 | 73 | 1012.2 |
| 20260510114053 | 65 | 71 | 5.0 | 10.0 | 0.00 | 0.03 | 0.03 | 73 | 1012.3 |
| 20260510113553 | 65 | 76 | 8.0 | 13.0 | 0.00 | 0.03 | 0.03 | 72 | 1012.3 |
| 20260510113053 | 65 | 63 | 8.0 | 15.0 | 0.00 | 0.03 | 0.03 | 73 | 1012.4 |
| 20260510112552 | 65 | 64 | 3.0 | 9.0 | 0.00 | 0.03 | 0.03 | 75 | 1012.4 |
| 20260510112054 | 65 | 63 | 9.0 | 12.0 | 0.00 | 0.03 | 0.03 | 73 | 1012.4 |
| 20260510111554 | 66 | 54 | 6.0 | 9.0 | 0.00 | 0.03 | 0.03 | 74 | 1012.5 |
| 20260510111053 | 66 | 55 | 10.0 | 12.0 | 0.00 | 0.03 | 0.03 | 73 | 1012.5 |
| 20260510110554 | 66 | 85 | 8.0 | 10.0 | 0.00 | 0.03 | 0.03 | 74 | 1012.6 |
| 20260510105052 | 65 | 54 | 7.0 | 10.0 | 0.00 | 0.03 | 0.03 | 77 | 1012.7 |
| 20260510104554 | 65 | 68 | 9.0 | 12.0 | 0.00 | 0.03 | 0.03 | 77 | 1012.7 |
| 20260510104053 | 65 | 61 | 8.0 | 12.0 | 0.00 | 0.03 | 0.03 | 78 | 1012.7 |
| 20260510103553 | 65 | 59 | 7.0 | 12.0 | 0.00 | 0.03 | 0.03 | 79 | 1012.7 |
| 20260510103053 | 65 | 56 | 6.0 | 12.0 | 0.00 | 0.03 | 0.03 | 80 | 1012.8 |
| 20260510102553 | 64 | 49 | 5.0 | 9.0 | 0.00 | 0.03 | 0.03 | 79 | 1012.8 |
| 20260510102052 | 64 | 69 | 7.0 | 10.0 | 0.00 | 0.03 | 0.03 | 78 | 1012.8 |
| 20260510101600 | 64 | 65 | 9.0 | 14.0 | 0.00 | 0.03 | 0.03 | 78 | 1012.8 |
| 20260510101052 | 64 | 62 | 7.0 | 13.0 | 0.00 | 0.03 | 0.03 | 78 | 1012.9 |
| 20260510100552 | 64 | 65 | 7.0 | 12.0 | 0.00 | 0.03 | 0.03 | 76 | 1012.9 |
| 20260510100052 | 65 | 91 | 6.0 | 10.0 | 0.00 | 0.03 | 0.03 | 75 | 1013.0 |
| 20260510095553 | 65 | 69 | 5.0 | 14.0 | 0.00 | 0.03 | 0.03 | 77 | 1013.0 |
| 20260510094055 | 65 | 78 | 9.0 | 14.0 | 0.00 | 0.03 | 0.03 | 76 | 1013.0 |
| 20260510093552 | 65 | 79 | 9.0 | 13.0 | 0.00 | 0.03 | 0.03 | 77 | 1013.0 |
| 20260510093057 | 66 | 78 | 7.0 | 12.0 | 0.00 | 0.03 | 0.03 | 80 | 1013.0 |
| 20260510092552 | 66 | 76 | 5.0 | 12.0 | 0.00 | 0.03 | 0.03 | 81 | 1013.0 |
| 20260510092052 | 65 | 86 | 6.0 | 12.0 | 0.00 | 0.03 | 0.03 | 81 | 1013.0 |
| 20260510091552 | 65 | 74 | 7.0 | 12.0 | 0.00 | 0.03 | 0.03 | 82 | 1013.1 |
| 20260510091107 | 65 | 85 | 7.0 | 10.0 | 0.00 | 0.03 | 0.03 | 83 | 1013.2 |
| 20260510090552 | 65 | 92 | 5.0 | 10.0 | 0.00 | 0.03 | 0.03 | 83 | 1013.2 |
| 20260510090053 | 65 | 85 | 7.0 | 10.0 | 0.00 | 0.03 | 0.03 | 84 | 1013.2 |
| 20260510085052 | 64 | 72 | 6.0 | 8.0 | 0.00 | 0.03 | 0.03 | 86 | 1013.2 |
| 20260510084553 | 64 | 86 | 5.0 | 9.0 | 0.00 | 0.03 | 0.03 | 87 | 1013.2 |
| 20260510084052 | 64 | 70 | 5.0 | 8.0 | 0.00 | 0.03 | 0.03 | 87 | 1013.2 |
| 20260510083552 | 64 | 81 | 6.0 | 8.0 | 0.00 | 0.03 | 0.03 | 87 | 1013.2 |
| 20260510083052 | 64 | 70 | 6.0 | 10.0 | 0.00 | 0.03 | 0.03 | 87 | 1013.1 |
| 20260510082552 | 63 | 78 | 6.0 | 9.0 | 0.00 | 0.03 | 0.03 | 87 | 1013.1 |
| 20260510081552 | 63 | 80 | 5.0 | 8.0 | 0.00 | 0.03 | 0.03 | 88 | 1013.1 |
| 20260510081053 | 63 | 93 | 6.0 | 8.0 | 0.00 | 0.03 | 0.03 | 88 | 1013.1 |
| 20260510080055 | 64 | 67 | 3.0 | 6.0 | 0.00 | 0.03 | 0.03 | 89 | 1013.1 |
| 20260510075552 | 64 | 67 | 4.0 | 6.0 | 0.00 | 0.03 | 0.03 | 88 | 1013.0 |
| 20260510075052 | 63 | 82 | 4.0 | 6.0 | 0.00 | 0.03 | 0.03 | 89 | 1013.0 |
| 20260510074553 | 63 | 84 | 3.0 | 8.0 | 0.00 | 0.03 | 0.03 | 89 | 1013.0 |
| 20260510074055 | 63 | 101 | 4.0 | 7.0 | 0.01 | 0.03 | 0.03 | 90 | 1012.9 |
| 20260510073052 | 63 | 79 | 3.0 | 7.0 | 0.01 | 0.03 | 0.03 | 92 | 1012.8 |
| 20260510072552 | 62 | 78 | 5.0 | 7.0 | 0.03 | 0.03 | 0.03 | 92 | 1012.7 |
| 20260510072051 | 62 | 67 | 5.0 | 9.0 | 0.03 | 0.03 | 0.03 | 92 | 1012.6 |
| 20260510071107 | 62 | 77 | 10.0 | 13.0 | 0.03 | 0.03 | 0.03 | 93 | 1012.6 |
| 20260510065552 | 62 | 75 | 5.0 | 9.0 | 0.03 | 0.03 | 0.03 | 93 | 1012.5 |
| 20260510064552 | 62 | 73 | 9.0 | 13.0 | 0.03 | 0.03 | 0.03 | 92 | 1012.5 |
| 20260510064052 | 62 | 91 | 7.0 | 12.0 | 0.02 | 0.02 | 0.02 | 91 | 1012.5 |
| 20260510063552 | 62 | 77 | 10.0 | 13.0 | 0.02 | 0.02 | 0.02 | 90 | 1012.5 |
| 20260510063053 | 62 | 73 | 8.0 | 13.0 | 0.02 | 0.02 | 0.02 | 89 | 1012.5 |
| 20260510062552 | 63 | 80 | 7.0 | 14.0 | 0.01 | 0.01 | 0.01 | 87 | 1012.5 |
| 20260510062052 | 63 | 89 | 7.0 | 8.0 | 0.00 | 0.00 | 0.00 | 87 | 1012.5 |
| 20260510061552 | 63 | 83 | 6.0 | 13.0 | 0.00 | 0.00 | 0.00 | 87 | 1012.5 |
| 20260510061051 | 63 | 90 | 8.0 | 13.0 | 0.00 | 0.00 | 0.00 | 86 | 1012.7 |
| 20260510060052 | 62 | 91 | 6.0 | 9.0 | 0.00 | 0.00 | 0.00 | 85 | 1012.6 |
| 20260510055552 | 62 | 76 | 6.0 | 10.0 | 0.00 | 0.00 | 0.00 | 85 | 1012.6 |
| 20260510054552 | 62 | 85 | 3.0 | 6.0 | 0.00 | 0.00 | 0.00 | 88 | 1012.7 |
| 20260510054051 | 61 | 94 | 3.0 | 7.0 | 0.00 | 0.00 | 0.00 | 88 | 1012.7 |
| 20260510053553 | 61 | 122 | 3.0 | 5.0 | 0.00 | 0.00 | 0.00 | 88 | 1012.6 |
| 20260510053051 | 60 | 100 | 2.0 | 5.0 | 0.00 | 0.00 | 0.00 | 88 | 1012.6 |
| 20260510052551 | 60 | 108 | 2.0 | 5.0 | 0.00 | 0.00 | 0.00 | 88 | 1012.6 |
| 20260510052051 | 60 | 107 | 4.0 | 7.0 | 0.00 | 0.00 | 0.00 | 88 | 1012.6 |
| 20260510051552 | 60 | 111 | 3.0 | 7.0 | 0.00 | 0.00 | 0.00 | 88 | 1012.7 |
| 20260510051052 | 60 | 101 | 2.0 | 5.0 | 0.00 | 0.00 | 0.00 | 87 | 1012.7 |
| 20260510050553 | 61 | 104 | 3.0 | 5.0 | 0.00 | 0.00 | 0.00 | 86 | 1012.7 |
| 20260510050051 | 61 | 132 | 2.0 | 2.0 | 0.00 | 0.00 | 0.00 | 85 | 1012.7 |
| 20260510045551 | 61 | 177 | 2.0 | 3.0 | 0.00 | 0.00 | 0.00 | 85 | 1012.6 |
| 20260510044551 | 61 | 202 | 2.0 | 3.0 | 0.00 | 0.00 | 0.00 | 85 | 1012.6 |
| 20260510044051 | 60 | 56 | 1.0 | 2.0 | 0.00 | 0.00 | 0.00 | 85 | 1012.6 |
| 20260510043551 | 60 | 47 | 0.0 | 1.0 | 0.00 | 0.00 | 0.00 | 86 | 1012.6 |
| 20260510043051 | 60 | 47 | 0.0 | 0.0 | 0.00 | 0.00 | 0.00 | 86 | 1012.5 |
| 20260510042552 | 60 | 47 | 0.0 | 0.0 | 0.00 | 0.00 | 0.00 | 86 | 1012.5 |
| 20260510042051 | 60 | 47 | 0.0 | 0.0 | 0.00 | 0.00 | 0.00 | 86 | 1012.4 |
| 20260510041551 | 60 | 47 | 0.0 | 1.0 | 0.00 | 0.00 | 0.00 | 86 | 1012.4 |
| 20260510041051 | 60 | 50 | 1.0 | 2.0 | 0.00 | 0.00 | 0.00 | 86 | 1012.5 |
| 20260510040051 | 60 | 87 | 2.0 | 5.0 | 0.00 | 0.00 | 0.00 | 86 | 1012.4 |
| 20260510035552 | 60 | 101 | 3.0 | 5.0 | 0.00 | 0.00 | 0.00 | 86 | 1012.4 |
| 20260510035051 | 60 | 82 | 3.0 | 7.0 | 0.00 | 0.00 | 0.00 | 85 | 1012.2 |
| 20260510034551 | 60 | 63 | 3.0 | 5.0 | 0.00 | 0.00 | 0.00 | 85 | 1012.3 |
| 20260510034051 | 60 | 66 | 4.0 | 6.0 | 0.00 | 0.00 | 0.00 | 85 | 1012.3 |
| 20260510033051 | 60 | 58 | 3.0 | 5.0 | 0.00 | 0.00 | 0.00 | 85 | 1012.4 |
| 20260510032551 | 60 | 60 | 3.0 | 5.0 | 0.00 | 0.00 | 0.00 | 85 | 1012.4 |
| 20260510032051 | 60 | 75 | 3.0 | 7.0 | 0.00 | 0.00 | 0.00 | 85 | 1012.5 |
| 20260510031551 | 60 | 64 | 3.0 | 5.0 | 0.00 | 0.00 | 0.00 | 84 | 1012.5 |
| 20260510031051 | 60 | 69 | 3.0 | 6.0 | 0.00 | 0.00 | 0.00 | 84 | 1012.6 |
| 20260510030551 | 60 | 69 | 2.0 | 5.0 | 0.00 | 0.00 | 0.00 | 84 | 1012.6 |
| 20260510030051 | 60 | 57 | 3.0 | 3.0 | 0.00 | 0.00 | 0.00 | 84 | 1012.7 |
| 20260510025551 | 60 | 48 | 2.0 | 3.0 | 0.00 | 0.00 | 0.00 | 84 | 1012.8 |
| 20260510025051 | 60 | 54 | 2.0 | 3.0 | 0.00 | 0.00 | 0.00 | 84 | 1012.9 |
| 20260510024551 | 60 | 63 | 2.0 | 3.0 | 0.00 | 0.00 | 0.00 | 84 | 1012.9 |
| 20260510024051 | 60 | 47 | 2.0 | 3.0 | 0.00 | 0.00 | 0.00 | 83 | 1012.9 |
| 20260510023551 | 61 | 40 | 2.0 | 3.0 | 0.00 | 0.00 | 0.00 | 83 | 1013.0 |
| 20260510023052 | 61 | 43 | 3.0 | 3.0 | 0.00 | 0.00 | 0.00 | 83 | 1013.1 |
| 20260510022551 | 61 | 46 | 3.0 | 3.0 | 0.00 | 0.00 | 0.00 | 82 | 1013.1 |
| 20260510022051 | 61 | 47 | 2.0 | 3.0 | 0.00 | 0.00 | 0.00 | 82 | 1013.2 |
| 20260510021051 | 61 | 24 | 1.0 | 3.0 | 0.00 | 0.00 | 0.00 | 81 | 1013.2 |
| 20260510020551 | 61 | 52 | 2.0 | 3.0 | 0.00 | 0.00 | 0.00 | 81 | 1013.3 |
| 20260510015553 | 61 | 62 | 3.0 | 5.0 | 0.00 | 0.00 | 0.00 | 80 | 1013.5 |
| 20260510015051 | 61 | 60 | 3.0 | 3.0 | 0.00 | 0.00 | 0.00 | 80 | 1013.5 |
| 20260510014556 | 61 | 45 | 3.0 | 5.0 | 0.00 | 0.00 | 0.00 | 81 | 1013.6 |
| 20260510014051 | 61 | 47 | 2.0 | 5.0 | 0.00 | 0.00 | 0.00 | 80 | 1013.6 |
| 20260510013553 | 61 | 59 | 2.0 | 5.0 | 0.00 | 0.00 | 0.00 | 80 | 1013.7 |
| 20260510013052 | 61 | 70 | 2.0 | 3.0 | 0.00 | 0.00 | 0.00 | 80 | 1013.7 |
| 20260510012551 | 61 | 73 | 2.0 | 5.0 | 0.00 | 0.00 | 0.00 | 79 | 1013.8 |
| 20260510012051 | 62 | 65 | 3.0 | 5.0 | 0.00 | 0.00 | 0.00 | 78 | 1013.8 |
| 20260510011551 | 62 | 70 | 3.0 | 6.0 | 0.00 | 0.00 | 0.00 | 78 | 1013.8 |
| 20260510011051 | 62 | 66 | 2.0 | 5.0 | 0.00 | 0.00 | 0.00 | 77 | 1013.9 |
| 20260510010553 | 62 | 72 | 2.0 | 3.0 | 0.00 | 0.00 | 0.00 | 77 | 1013.9 |
| 20260510010051 | 62 | 80 | 3.0 | 6.0 | 0.00 | 0.00 | 0.00 | 76 | 1013.8 |
| 20260510005550 | 62 | 72 | 3.0 | 7.0 | 0.00 | 0.00 | 0.00 | 76 | 1013.8 |
| 20260510004551 | 62 | 68 | 5.0 | 8.0 | 0.00 | 0.00 | 0.00 | 75 | 1013.8 |
| 20260510004051 | 62 | 65 | 4.0 | 8.0 | 0.00 | 0.00 | 0.00 | 74 | 1013.8 |
| 20260510003554 | 62 | 68 | 4.0 | 7.0 | 0.00 | 0.00 | 0.00 | 74 | 1013.8 |
| 20260510003051 | 62 | 69 | 3.0 | 7.0 | 0.00 | 0.00 | 0.00 | 75 | 1013.8 |
| 20260510002552 | 62 | 65 | 3.0 | 5.0 | 0.00 | 0.00 | 0.00 | 75 | 1013.8 |
| 20260510002051 | 62 | 59 | 3.0 | 5.0 | 0.00 | 0.00 | 0.00 | 76 | 1013.8 |
| 20260510001051 | 62 | 69 | 3.0 | 5.0 | 0.00 | 0.00 | 0.00 | 77 | 1014.0 |
| 20260510000551 | 62 | 62 | 3.0 | 5.0 | 0.00 | 0.00 | 0.00 | 77 | 1014.0 |
| 20260509235551 | 62 | 67 | 3.0 | 5.0 | 0.00 | 0.00 | 0.00 | 78 | 1014.1 |
| 20260509235051 | 62 | 53 | 4.0 | 5.0 | 0.00 | 0.00 | 0.00 | 78 | 1014.1 |
| 20260509234050 | 62 | 53 | 3.0 | 6.0 | 0.00 | 0.00 | 0.00 | 78 | 1014.2 |
| 20260509233051 | 62 | 70 | 5.0 | 5.0 | 0.00 | 0.00 | 0.00 | 78 | 1014.3 |
| 20260509232558 | 62 | 58 | 3.0 | 5.0 | 0.00 | 0.00 | 0.00 | 79 | 1014.3 |
| 20260509232050 | 62 | 54 | 4.0 | 6.0 | 0.00 | 0.00 | 0.00 | 79 | 1014.3 |
| 20260509231550 | 62 | 47 | 5.0 | 7.0 | 0.00 | 0.00 | 0.00 | 79 | 1014.4 |
| 20260509230550 | 62 | 49 | 4.0 | 5.0 | 0.00 | 0.00 | 0.00 | 79 | 1014.4 |
| 20260509230105 | 62 | 52 | 2.0 | 3.0 | 0.00 | 0.00 | 0.00 | 79 | 1014.4 |
| 20260509225551 | 62 | 64 | 3.0 | 7.0 | 0.00 | 0.00 | 0.00 | 78 | 1014.3 |
| 20260509225051 | 63 | 48 | 5.0 | 7.0 | 0.00 | 0.00 | 0.00 | 78 | 1014.3 |
| 20260509224551 | 63 | 71 | 2.0 | 5.0 | 0.00 | 0.00 | 0.00 | 78 | 1014.3 |
| 20260509224050 | 63 | 51 | 6.0 | 8.0 | 0.00 | 0.00 | 0.00 | 78 | 1014.3 |
| 20260509223550 | 63 | 43 | 4.0 | 6.0 | 0.00 | 0.00 | 0.00 | 78 | 1014.3 |
| 20260509223050 | 63 | 79 | 2.0 | 3.0 | 0.00 | 0.00 | 0.00 | 77 | 1014.1 |
| 20260509222552 | 63 | 106 | 1.0 | 3.0 | 0.00 | 0.00 | 0.00 | 78 | 1014.1 |
| 20260509222050 | 63 | 85 | 1.0 | 2.0 | 0.00 | 0.00 | 0.00 | 77 | 1014.1 |
| 20260509221551 | 64 | 85 | 1.0 | 2.0 | 0.00 | 0.00 | 0.00 | 77 | 1014.1 |
| 20260509221050 | 64 | 85 | 1.0 | 2.0 | 0.00 | 0.00 | 0.00 | 77 | 1014.0 |
| 20260509220551 | 64 | 100 | 2.0 | 2.0 | 0.00 | 0.00 | 0.00 | 77 | 1014.0 |
| 20260509220050 | 64 | 105 | 1.0 | 2.0 | 0.00 | 0.00 | 0.00 | 77 | 1014.0 |
| 20260509215550 | 64 | 105 | 2.0 | 3.0 | 0.00 | 0.00 | 0.00 | 76 | 1014.0 |
| 20260509215050 | 65 | 105 | 2.0 | 3.0 | 0.00 | 0.00 | 0.00 | 75 | 1014.0 |
| 20260509214550 | 65 | 105 | 1.0 | 2.0 | 0.00 | 0.00 | 0.00 | 73 | 1014.0 |
| 20260509214050 | 65 | 106 | 2.0 | 3.0 | 0.00 | 0.00 | 0.00 | 72 | 1014.0 |
| 20260509213051 | 66 | 122 | 2.0 | 6.0 | 0.00 | 0.00 | 0.00 | 71 | 1014.0 |
| 20260509212550 | 66 | 134 | 2.0 | 5.0 | 0.00 | 0.00 | 0.00 | 71 | 1014.0 |
| 20260509212051 | 66 | 165 | 3.0 | 3.0 | 0.00 | 0.00 | 0.00 | 72 | 1014.0 |
| 20260509211550 | 66 | 148 | 3.0 | 7.0 | 0.00 | 0.00 | 0.00 | 73 | 1014.0 |
| 20260509210550 | 65 | 117 | 2.0 | 3.0 | 0.00 | 0.00 | 0.00 | 74 | 1014.0 |
| 20260509205550 | 66 | 127 | 2.0 | 3.0 | 0.00 | 0.00 | 0.00 | 72 | 1013.9 |
| 20260509205050 | 66 | 92 | 2.0 | 3.0 | 0.00 | 0.00 | 0.00 | 72 | 1013.9 |
| 20260509204552 | 67 | 104 | 2.0 | 3.0 | 0.00 | 0.00 | 0.00 | 72 | 1013.9 |
| 20260509204051 | 67 | 106 | 2.0 | 3.0 | 0.00 | 0.00 | 0.00 | 70 | 1013.9 |
| 20260509203550 | 67 | 106 | 1.0 | 3.0 | 0.00 | 0.00 | 0.00 | 69 | 1013.9 |
| 20260509203052 | 67 | 106 | 2.0 | 3.0 | 0.00 | 0.00 | 0.00 | 70 | 1013.9 |
| 20260509202550 | 67 | 82 | 2.0 | 3.0 | 0.00 | 0.00 | 0.00 | 71 | 1013.8 |
| 20260509202050 | 67 | 101 | 1.0 | 2.0 | 0.00 | 0.00 | 0.00 | 71 | 1013.8 |
| 20260509201550 | 67 | 78 | 2.0 | 3.0 | 0.00 | 0.00 | 0.00 | 71 | 1013.8 |
| 20260509201051 | 67 | 44 | 2.0 | 2.0 | 0.00 | 0.00 | 0.00 | 72 | 1013.8 |
| 20260509200550 | 67 | 44 | 1.0 | 3.0 | 0.00 | 0.00 | 0.00 | 73 | 1013.8 |
| 20260509200051 | 68 | 44 | 0.0 | 1.0 | 0.00 | 0.00 | 0.00 | 72 | 1013.8 |
| 20260509195049 | 67 | 38 | 2.0 | 3.0 | 0.00 | 0.00 | 0.00 | 73 | 1013.7 |
| 20260509194550 | 67 | 55 | 1.0 | 2.0 | 0.00 | 0.00 | 0.00 | 72 | 1013.6 |
| 20260509194049 | 67 | 55 | 1.0 | 1.0 | 0.00 | 0.00 | 0.00 | 72 | 1013.5 |